sensor_id;sensor_type;location;lat;lon;timestamp;temperature;humidity
9177;DHT22;4623;54.310;10.112;2022-07-29T00:01:18;15.50;99.90
9177;DHT22;4623;54.310;10.112;2022-07-29T00:03:43;15.50;99.90
9177;DHT22;4623;54.310;10.112;2022-07-29T00:06:09;15.40;99.90
9177;DHT22;4623;54.310;10.112;2022-07-29T00:08:34;15.40;99.90
9177;DHT22;4623;54.310;10.112;2022-07-29T00:11:01;15.40;99.90
9177;DHT22;4623;54.310;10.112;2022-07-29T00:13:27;15.40;99.90
9177;DHT22;4623;54.310;10.112;2022-07-29T00:15:52;15.40;99.90
9177;DHT22;4623;54.310;10.112;2022-07-29T00:18:18;15.30;99.90
9177;DHT22;4623;54.310;10.112;2022-07-29T00:20:44;15.30;99.90
9177;DHT22;4623;54.310;10.112;2022-07-29T00:23:09;15.30;99.90
9177;DHT22;4623;54.310;10.112;2022-07-29T00:25:35;15.30;99.90
9177;DHT22;4623;54.310;10.112;2022-07-29T00:28:00;15.30;99.90
9177;DHT22;4623;54.310;10.112;2022-07-29T00:30:26;15.30;99.90
9177;DHT22;4623;54.310;10.112;2022-07-29T00:32:52;15.30;99.90
9177;DHT22;4623;54.310;10.112;2022-07-29T00:35:17;15.30;99.90
9177;DHT22;4623;54.310;10.112;2022-07-29T00:38:01;15.30;99.90
9177;DHT22;4623;54.310;10.112;2022-07-29T00:40:27;15.20;99.90
9177;DHT22;4623;54.310;10.112;2022-07-29T00:42:53;15.20;99.90
9177;DHT22;4623;54.310;10.112;2022-07-29T00:45:19;15.30;99.90
9177;DHT22;4623;54.310;10.112;2022-07-29T00:47:45;15.30;99.90
9177;DHT22;4623;54.310;10.112;2022-07-29T00:50:12;15.30;99.90
9177;DHT22;4623;54.310;10.112;2022-07-29T00:52:39;15.30;99.90
9177;DHT22;4623;54.310;10.112;2022-07-29T00:55:07;15.30;99.90
9177;DHT22;4623;54.310;10.112;2022-07-29T00:57:34;15.30;99.90
9177;DHT22;4623;54.310;10.112;2022-07-29T01:00:00;15.30;99.90
9177;DHT22;4623;54.310;10.112;2022-07-29T01:02:26;15.30;99.90
9177;DHT22;4623;54.310;10.112;2022-07-29T01:04:52;15.20;99.90
9177;DHT22;4623;54.310;10.112;2022-07-29T01:07:18;15.20;99.90
9177;DHT22;4623;54.310;10.112;2022-07-29T01:09:45;15.20;99.90
9177;DHT22;4623;54.310;10.112;2022-07-29T01:12:21;15.10;99.90
9177;DHT22;4623;54.310;10.112;2022-07-29T01:14:48;15.10;99.90
9177;DHT22;4623;54.310;10.112;2022-07-29T01:20:10;15.10;99.90
9177;DHT22;4623;54.310;10.112;2022-07-29T01:31:20;14.90;99.90
9177;DHT22;4623;54.310;10.112;2022-07-29T01:33:58;14.90;99.90
9177;DHT22;4623;54.310;10.112;2022-07-29T01:36:40;15.00;99.90
9177;DHT22;4623;54.310;10.112;2022-07-29T01:39:27;14.90;99.90
9177;DHT22;4623;54.310;10.112;2022-07-29T01:44:48;14.90;99.90
9177;DHT22;4623;54.310;10.112;2022-07-29T01:47:20;14.90;99.90
9177;DHT22;4623;54.310;10.112;2022-07-29T01:49:51;14.80;99.90
9177;DHT22;4623;54.310;10.112;2022-07-29T01:52:31;14.80;99.90
9177;DHT22;4623;54.310;10.112;2022-07-29T01:55:04;14.90;99.90
9177;DHT22;4623;54.310;10.112;2022-07-29T01:57:31;14.90;99.90
9177;DHT22;4623;54.310;10.112;2022-07-29T01:59:59;14.90;99.90
9177;DHT22;4623;54.310;10.112;2022-07-29T02:02:27;14.90;99.90
9177;DHT22;4623;54.310;10.112;2022-07-29T02:04:54;14.90;99.90
9177;DHT22;4623;54.310;10.112;2022-07-29T02:07:21;14.90;99.90
9177;DHT22;4623;54.310;10.112;2022-07-29T02:09:50;14.90;99.90
9177;DHT22;4623;54.310;10.112;2022-07-29T02:12:18;14.90;99.90
9177;DHT22;4623;54.310;10.112;2022-07-29T02:14:50;14.90;99.90
9177;DHT22;4623;54.310;10.112;2022-07-29T02:17:22;14.90;99.90
9177;DHT22;4623;54.310;10.112;2022-07-29T02:19:49;14.90;99.90
9177;DHT22;4623;54.310;10.112;2022-07-29T02:22:16;14.90;99.90
9177;DHT22;4623;54.310;10.112;2022-07-29T02:24:44;14.80;99.90
9177;DHT22;4623;54.310;10.112;2022-07-29T02:27:10;14.70;99.90
9177;DHT22;4623;54.310;10.112;2022-07-29T02:29:39;14.70;99.90
9177;DHT22;4623;54.310;10.112;2022-07-29T02:32:06;14.60;99.90
9177;DHT22;4623;54.310;10.112;2022-07-29T02:34:34;14.60;99.90
9177;DHT22;4623;54.310;10.112;2022-07-29T02:37:02;14.60;99.90
9177;DHT22;4623;54.310;10.112;2022-07-29T02:39:28;14.60;99.90
9177;DHT22;4623;54.310;10.112;2022-07-29T02:41:59;14.50;99.90
9177;DHT22;4623;54.310;10.112;2022-07-29T02:44:26;14.50;99.90
9177;DHT22;4623;54.310;10.112;2022-07-29T02:47:02;14.50;99.90
9177;DHT22;4623;54.310;10.112;2022-07-29T02:52:24;14.50;99.90
9177;DHT22;4623;54.310;10.112;2022-07-29T02:55:14;14.50;99.90
9177;DHT22;4623;54.310;10.112;2022-07-29T02:57:46;14.50;99.90
9177;DHT22;4623;54.310;10.112;2022-07-29T03:00:13;14.50;99.90
9177;DHT22;4623;54.310;10.112;2022-07-29T03:02:42;14.50;99.90
9177;DHT22;4623;54.310;10.112;2022-07-29T03:05:12;14.60;99.90
9177;DHT22;4623;54.310;10.112;2022-07-29T03:07:43;14.70;99.90
9177;DHT22;4623;54.310;10.112;2022-07-29T03:10:11;14.70;99.90
9177;DHT22;4623;54.310;10.112;2022-07-29T03:12:38;14.80;99.90
9177;DHT22;4623;54.310;10.112;2022-07-29T03:15:04;14.80;99.90
9177;DHT22;4623;54.310;10.112;2022-07-29T03:17:31;14.80;99.90
9177;DHT22;4623;54.310;10.112;2022-07-29T03:19:58;14.80;99.90
9177;DHT22;4623;54.310;10.112;2022-07-29T03:22:24;14.80;99.90
9177;DHT22;4623;54.310;10.112;2022-07-29T03:24:50;14.80;99.90
9177;DHT22;4623;54.310;10.112;2022-07-29T03:27:16;14.80;99.90
9177;DHT22;4623;54.310;10.112;2022-07-29T03:29:41;14.80;99.90
9177;DHT22;4623;54.310;10.112;2022-07-29T03:32:08;14.80;99.90
9177;DHT22;4623;54.310;10.112;2022-07-29T03:34:34;14.80;99.90
9177;DHT22;4623;54.310;10.112;2022-07-29T03:37:00;14.80;99.90
9177;DHT22;4623;54.310;10.112;2022-07-29T03:39:29;14.80;99.90
9177;DHT22;4623;54.310;10.112;2022-07-29T03:41:58;14.80;99.90
9177;DHT22;4623;54.310;10.112;2022-07-29T03:44:26;14.80;99.90
9177;DHT22;4623;54.310;10.112;2022-07-29T03:46:54;14.80;99.90
9177;DHT22;4623;54.310;10.112;2022-07-29T03:49:21;14.80;99.90
9177;DHT22;4623;54.310;10.112;2022-07-29T03:51:48;14.90;99.90
9177;DHT22;4623;54.310;10.112;2022-07-29T03:54:14;14.90;99.90
9177;DHT22;4623;54.310;10.112;2022-07-29T03:56:43;14.90;99.90
9177;DHT22;4623;54.310;10.112;2022-07-29T03:59:14;14.90;99.90
9177;DHT22;4623;54.310;10.112;2022-07-29T04:01:41;14.90;99.90
9177;DHT22;4623;54.310;10.112;2022-07-29T04:04:07;14.90;99.90
9177;DHT22;4623;54.310;10.112;2022-07-29T04:06:43;14.90;99.90
9177;DHT22;4623;54.310;10.112;2022-07-29T04:09:09;14.90;99.90
9177;DHT22;4623;54.310;10.112;2022-07-29T04:11:36;14.90;99.90
9177;DHT22;4623;54.310;10.112;2022-07-29T04:14:03;14.90;99.90
9177;DHT22;4623;54.310;10.112;2022-07-29T04:16:29;14.90;99.90
9177;DHT22;4623;54.310;10.112;2022-07-29T04:18:54;14.90;99.90
9177;DHT22;4623;54.310;10.112;2022-07-29T04:21:20;14.90;99.90
9177;DHT22;4623;54.310;10.112;2022-07-29T04:23:46;14.90;99.90
9177;DHT22;4623;54.310;10.112;2022-07-29T04:26:15;15.00;99.90
9177;DHT22;4623;54.310;10.112;2022-07-29T04:28:41;15.00;99.90
9177;DHT22;4623;54.310;10.112;2022-07-29T04:31:08;15.10;99.90
9177;DHT22;4623;54.310;10.112;2022-07-29T04:33:34;15.20;99.90
9177;DHT22;4623;54.310;10.112;2022-07-29T04:35:59;15.20;99.90
9177;DHT22;4623;54.310;10.112;2022-07-29T04:38:25;15.30;99.90
9177;DHT22;4623;54.310;10.112;2022-07-29T04:40:51;15.30;99.90
9177;DHT22;4623;54.310;10.112;2022-07-29T04:43:16;15.30;99.90
9177;DHT22;4623;54.310;10.112;2022-07-29T04:45:42;15.30;99.90
9177;DHT22;4623;54.310;10.112;2022-07-29T04:48:07;15.30;99.90
9177;DHT22;4623;54.310;10.112;2022-07-29T04:50:33;15.30;99.90
9177;DHT22;4623;54.310;10.112;2022-07-29T04:52:59;15.40;99.90
9177;DHT22;4623;54.310;10.112;2022-07-29T04:55:24;15.40;99.90
9177;DHT22;4623;54.310;10.112;2022-07-29T04:57:50;15.40;99.90
9177;DHT22;4623;54.310;10.112;2022-07-29T05:00:16;15.40;99.90
9177;DHT22;4623;54.310;10.112;2022-07-29T05:02:42;15.40;99.90
9177;DHT22;4623;54.310;10.112;2022-07-29T05:05:08;15.40;99.90
9177;DHT22;4623;54.310;10.112;2022-07-29T05:07:34;15.40;99.90
9177;DHT22;4623;54.310;10.112;2022-07-29T05:09:59;15.50;99.90
9177;DHT22;4623;54.310;10.112;2022-07-29T05:12:25;15.50;99.90
9177;DHT22;4623;54.310;10.112;2022-07-29T05:14:51;15.60;99.90
9177;DHT22;4623;54.310;10.112;2022-07-29T05:17:17;15.60;99.90
9177;DHT22;4623;54.310;10.112;2022-07-29T05:19:43;15.70;99.90
9177;DHT22;4623;54.310;10.112;2022-07-29T05:22:08;15.70;99.90
9177;DHT22;4623;54.310;10.112;2022-07-29T05:24:34;15.80;99.90
9177;DHT22;4623;54.310;10.112;2022-07-29T05:26:59;15.90;99.90
9177;DHT22;4623;54.310;10.112;2022-07-29T05:29:25;15.90;99.90
9177;DHT22;4623;54.310;10.112;2022-07-29T05:31:51;16.00;99.90
9177;DHT22;4623;54.310;10.112;2022-07-29T05:34:18;16.00;99.90
9177;DHT22;4623;54.310;10.112;2022-07-29T05:36:44;16.00;99.90
9177;DHT22;4623;54.310;10.112;2022-07-29T05:39:10;16.10;99.90
9177;DHT22;4623;54.310;10.112;2022-07-29T05:41:36;16.20;99.90
9177;DHT22;4623;54.310;10.112;2022-07-29T05:44:02;16.20;99.90
9177;DHT22;4623;54.310;10.112;2022-07-29T05:46:27;16.20;99.90
9177;DHT22;4623;54.310;10.112;2022-07-29T05:48:53;16.20;99.90
9177;DHT22;4623;54.310;10.112;2022-07-29T05:51:19;16.20;99.90
9177;DHT22;4623;54.310;10.112;2022-07-29T05:53:44;16.20;99.90
9177;DHT22;4623;54.310;10.112;2022-07-29T05:56:10;16.20;99.90
9177;DHT22;4623;54.310;10.112;2022-07-29T05:58:36;16.30;99.90
9177;DHT22;4623;54.310;10.112;2022-07-29T06:01:02;16.40;99.90
9177;DHT22;4623;54.310;10.112;2022-07-29T06:03:28;16.40;99.90
9177;DHT22;4623;54.310;10.112;2022-07-29T06:05:54;16.40;99.90
9177;DHT22;4623;54.310;10.112;2022-07-29T06:08:19;16.40;99.90
9177;DHT22;4623;54.310;10.112;2022-07-29T06:10:45;16.40;99.90
9177;DHT22;4623;54.310;10.112;2022-07-29T06:13:11;16.60;99.90
9177;DHT22;4623;54.310;10.112;2022-07-29T06:15:37;16.70;99.90
9177;DHT22;4623;54.310;10.112;2022-07-29T06:18:03;16.80;99.90
9177;DHT22;4623;54.310;10.112;2022-07-29T06:20:29;16.90;99.90
9177;DHT22;4623;54.310;10.112;2022-07-29T06:22:55;16.90;99.90
9177;DHT22;4623;54.310;10.112;2022-07-29T06:25:21;16.90;99.90
9177;DHT22;4623;54.310;10.112;2022-07-29T06:27:47;16.90;99.90
9177;DHT22;4623;54.310;10.112;2022-07-29T06:30:13;17.00;99.90
9177;DHT22;4623;54.310;10.112;2022-07-29T06:32:38;17.00;99.90
9177;DHT22;4623;54.310;10.112;2022-07-29T06:35:04;17.10;99.90
9177;DHT22;4623;54.310;10.112;2022-07-29T06:37:32;17.10;99.90
9177;DHT22;4623;54.310;10.112;2022-07-29T06:39:58;17.10;99.90
9177;DHT22;4623;54.310;10.112;2022-07-29T06:42:43;17.10;99.90
9177;DHT22;4623;54.310;10.112;2022-07-29T06:45:10;17.10;99.90
9177;DHT22;4623;54.310;10.112;2022-07-29T06:47:36;17.10;99.90
9177;DHT22;4623;54.310;10.112;2022-07-29T06:50:01;17.20;99.90
9177;DHT22;4623;54.310;10.112;2022-07-29T06:52:27;17.30;99.90
9177;DHT22;4623;54.310;10.112;2022-07-29T06:54:53;17.40;99.90
9177;DHT22;4623;54.310;10.112;2022-07-29T06:57:20;17.50;99.90
9177;DHT22;4623;54.310;10.112;2022-07-29T06:59:46;17.60;99.90
9177;DHT22;4623;54.310;10.112;2022-07-29T07:02:12;17.70;99.90
9177;DHT22;4623;54.310;10.112;2022-07-29T07:04:38;17.70;99.90
9177;DHT22;4623;54.310;10.112;2022-07-29T07:07:04;17.80;99.90
9177;DHT22;4623;54.310;10.112;2022-07-29T07:09:29;17.80;99.90
9177;DHT22;4623;54.310;10.112;2022-07-29T07:11:55;17.70;99.90
9177;DHT22;4623;54.310;10.112;2022-07-29T07:14:20;17.80;99.90
9177;DHT22;4623;54.310;10.112;2022-07-29T07:16:46;17.90;99.90
9177;DHT22;4623;54.310;10.112;2022-07-29T07:19:11;18.10;99.90
9177;DHT22;4623;54.310;10.112;2022-07-29T07:21:37;18.20;99.90
9177;DHT22;4623;54.310;10.112;2022-07-29T07:24:03;18.20;99.90
9177;DHT22;4623;54.310;10.112;2022-07-29T07:26:28;18.30;99.90
9177;DHT22;4623;54.310;10.112;2022-07-29T07:28:54;18.50;99.90
9177;DHT22;4623;54.310;10.112;2022-07-29T07:31:20;18.60;99.90
9177;DHT22;4623;54.310;10.112;2022-07-29T07:33:45;18.60;99.90
9177;DHT22;4623;54.310;10.112;2022-07-29T07:36:11;18.70;99.90
9177;DHT22;4623;54.310;10.112;2022-07-29T07:38:37;18.80;99.90
9177;DHT22;4623;54.310;10.112;2022-07-29T07:41:03;18.90;99.90
9177;DHT22;4623;54.310;10.112;2022-07-29T07:43:28;19.00;99.90
9177;DHT22;4623;54.310;10.112;2022-07-29T07:45:54;19.00;99.90
9177;DHT22;4623;54.310;10.112;2022-07-29T07:48:20;19.10;99.90
9177;DHT22;4623;54.310;10.112;2022-07-29T07:50:45;19.00;99.90
9177;DHT22;4623;54.310;10.112;2022-07-29T07:53:11;19.00;99.90
9177;DHT22;4623;54.310;10.112;2022-07-29T07:55:43;19.10;99.90
9177;DHT22;4623;54.310;10.112;2022-07-29T07:58:09;19.20;99.90
9177;DHT22;4623;54.310;10.112;2022-07-29T08:00:35;19.40;99.90
9177;DHT22;4623;54.310;10.112;2022-07-29T08:03:01;19.50;99.90
9177;DHT22;4623;54.310;10.112;2022-07-29T08:05:27;19.70;99.90
9177;DHT22;4623;54.310;10.112;2022-07-29T08:07:53;19.80;99.90
9177;DHT22;4623;54.310;10.112;2022-07-29T08:10:19;19.90;99.90
9177;DHT22;4623;54.310;10.112;2022-07-29T08:13:08;20.00;99.90
9177;DHT22;4623;54.310;10.112;2022-07-29T08:15:34;20.00;99.90
9177;DHT22;4623;54.310;10.112;2022-07-29T08:18:00;20.10;99.90
9177;DHT22;4623;54.310;10.112;2022-07-29T08:20:26;20.30;99.90
9177;DHT22;4623;54.310;10.112;2022-07-29T08:22:52;20.40;99.90
9177;DHT22;4623;54.310;10.112;2022-07-29T08:25:19;20.40;99.90
9177;DHT22;4623;54.310;10.112;2022-07-29T08:27:46;20.50;99.90
9177;DHT22;4623;54.310;10.112;2022-07-29T08:30:12;20.60;99.90
9177;DHT22;4623;54.310;10.112;2022-07-29T08:32:37;20.70;99.90
9177;DHT22;4623;54.310;10.112;2022-07-29T08:35:03;20.80;99.90
9177;DHT22;4623;54.310;10.112;2022-07-29T08:37:29;20.90;99.90
9177;DHT22;4623;54.310;10.112;2022-07-29T08:39:54;20.90;99.90
9177;DHT22;4623;54.310;10.112;2022-07-29T08:42:21;20.90;99.90
9177;DHT22;4623;54.310;10.112;2022-07-29T08:44:47;21.10;99.90
9177;DHT22;4623;54.310;10.112;2022-07-29T08:47:16;21.20;99.90
9177;DHT22;4623;54.310;10.112;2022-07-29T08:49:42;21.20;99.90
9177;DHT22;4623;54.310;10.112;2022-07-29T08:52:10;21.10;99.90
9177;DHT22;4623;54.310;10.112;2022-07-29T08:54:38;21.20;99.90
9177;DHT22;4623;54.310;10.112;2022-07-29T08:57:04;21.20;99.90
9177;DHT22;4623;54.310;10.112;2022-07-29T08:59:30;21.40;99.90
9177;DHT22;4623;54.310;10.112;2022-07-29T09:01:58;21.50;99.90
9177;DHT22;4623;54.310;10.112;2022-07-29T09:04:30;21.70;99.90
9177;DHT22;4623;54.310;10.112;2022-07-29T09:06:57;21.80;99.90
9177;DHT22;4623;54.310;10.112;2022-07-29T09:09:26;22.00;99.90
9177;DHT22;4623;54.310;10.112;2022-07-29T09:11:52;22.20;99.90
9177;DHT22;4623;54.310;10.112;2022-07-29T09:14:18;22.30;99.90
9177;DHT22;4623;54.310;10.112;2022-07-29T09:16:55;22.50;99.90
9177;DHT22;4623;54.310;10.112;2022-07-29T09:19:27;22.70;99.90
9177;DHT22;4623;54.310;10.112;2022-07-29T09:21:53;22.90;99.90
9177;DHT22;4623;54.310;10.112;2022-07-29T09:24:39;23.10;99.90
9177;DHT22;4623;54.310;10.112;2022-07-29T09:29:46;23.20;99.90
9177;DHT22;4623;54.310;10.112;2022-07-29T09:32:11;23.20;99.90
9177;DHT22;4623;54.310;10.112;2022-07-29T09:34:37;23.10;99.90
9177;DHT22;4623;54.310;10.112;2022-07-29T09:37:03;23.20;99.90
9177;DHT22;4623;54.310;10.112;2022-07-29T09:41:58;23.40;99.90
9177;DHT22;4623;54.310;10.112;2022-07-29T09:44:25;23.50;99.90
9177;DHT22;4623;54.310;10.112;2022-07-29T09:47:00;23.50;99.90
9177;DHT22;4623;54.310;10.112;2022-07-29T09:49:33;23.50;99.90
9177;DHT22;4623;54.310;10.112;2022-07-29T09:52:07;23.30;99.90
9177;DHT22;4623;54.310;10.112;2022-07-29T09:54:34;23.40;99.90
9177;DHT22;4623;54.310;10.112;2022-07-29T09:57:03;23.40;99.90
9177;DHT22;4623;54.310;10.112;2022-07-29T09:59:30;23.30;99.90
9177;DHT22;4623;54.310;10.112;2022-07-29T10:01:56;23.20;99.80
9177;DHT22;4623;54.310;10.112;2022-07-29T10:04:22;23.10;99.40
9177;DHT22;4623;54.310;10.112;2022-07-29T10:07:01;22.90;99.70
9177;DHT22;4623;54.310;10.112;2022-07-29T10:09:28;23.00;98.50
9177;DHT22;4623;54.310;10.112;2022-07-29T10:14:32;23.50;97.10
9177;DHT22;4623;54.310;10.112;2022-07-29T10:17:01;23.50;96.60
9177;DHT22;4623;54.310;10.112;2022-07-29T10:19:29;23.70;99.10
9177;DHT22;4623;54.310;10.112;2022-07-29T10:21:57;23.70;97.30
9177;DHT22;4623;54.310;10.112;2022-07-29T10:24:28;23.80;99.10
9177;DHT22;4623;54.310;10.112;2022-07-29T10:26:55;24.10;98.10
9177;DHT22;4623;54.310;10.112;2022-07-29T10:29:22;24.30;97.50
9177;DHT22;4623;54.310;10.112;2022-07-29T10:34:27;24.50;94.10
9177;DHT22;4623;54.310;10.112;2022-07-29T10:42:52;26.70;93.90
9177;DHT22;4623;54.310;10.112;2022-07-29T10:45:18;27.70;93.10
9177;DHT22;4623;54.310;10.112;2022-07-29T10:47:45;27.90;93.40
9177;DHT22;4623;54.310;10.112;2022-07-29T10:50:10;28.20;92.10
9177;DHT22;4623;54.310;10.112;2022-07-29T10:52:56;28.50;88.80
9177;DHT22;4623;54.310;10.112;2022-07-29T10:55:38;28.30;74.00
9177;DHT22;4623;54.310;10.112;2022-07-29T10:58:18;28.10;63.10
9177;DHT22;4623;54.310;10.112;2022-07-29T11:00:47;28.20;69.80
9177;DHT22;4623;54.310;10.112;2022-07-29T11:03:42;29.20;72.10
9177;DHT22;4623;54.310;10.112;2022-07-29T11:06:07;30.30;59.60
9177;DHT22;4623;54.310;10.112;2022-07-29T11:08:34;30.50;67.50
9177;DHT22;4623;54.310;10.112;2022-07-29T11:16:11;29.50;61.70
9177;DHT22;4623;54.310;10.112;2022-07-29T11:21:46;28.90;57.70
9177;DHT22;4623;54.310;10.112;2022-07-29T11:26:39;27.80;67.70
9177;DHT22;4623;54.310;10.112;2022-07-29T11:29:20;27.50;65.70
9177;DHT22;4623;54.310;10.112;2022-07-29T11:31:50;27.30;61.10
9177;DHT22;4623;54.310;10.112;2022-07-29T11:34:28;26.60;62.60
9177;DHT22;4623;54.310;10.112;2022-07-29T11:39:40;26.20;67.90
9177;DHT22;4623;54.310;10.112;2022-07-29T11:47:30;25.90;69.90
9177;DHT22;4623;54.310;10.112;2022-07-29T11:49:57;25.90;76.10
9177;DHT22;4623;54.310;10.112;2022-07-29T11:52:23;26.00;75.50
9177;DHT22;4623;54.310;10.112;2022-07-29T11:54:57;26.30;74.70
9177;DHT22;4623;54.310;10.112;2022-07-29T11:57:25;26.60;71.30
9177;DHT22;4623;54.310;10.112;2022-07-29T11:59:50;26.90;69.70
9177;DHT22;4623;54.310;10.112;2022-07-29T12:02:16;27.00;71.00
9177;DHT22;4623;54.310;10.112;2022-07-29T12:04:52;26.70;62.70
9177;DHT22;4623;54.310;10.112;2022-07-29T12:07:29;27.00;65.60
9177;DHT22;4623;54.310;10.112;2022-07-29T12:09:54;27.20;67.80
9177;DHT22;4623;54.310;10.112;2022-07-29T12:12:22;27.20;65.50
9177;DHT22;4623;54.310;10.112;2022-07-29T12:14:48;27.20;65.80
9177;DHT22;4623;54.310;10.112;2022-07-29T12:17:31;27.10;66.80
9177;DHT22;4623;54.310;10.112;2022-07-29T12:19:59;27.20;64.20
9177;DHT22;4623;54.310;10.112;2022-07-29T12:22:28;27.20;63.80
9177;DHT22;4623;54.310;10.112;2022-07-29T12:24:55;27.50;64.50
9177;DHT22;4623;54.310;10.112;2022-07-29T12:27:22;27.60;62.40
9177;DHT22;4623;54.310;10.112;2022-07-29T12:30:04;27.30;61.40
9177;DHT22;4623;54.310;10.112;2022-07-29T12:32:38;27.10;60.30
9177;DHT22;4623;54.310;10.112;2022-07-29T12:35:13;26.70;59.10
9177;DHT22;4623;54.310;10.112;2022-07-29T12:37:40;26.50;61.00
9177;DHT22;4623;54.310;10.112;2022-07-29T12:40:08;26.30;60.70
9177;DHT22;4623;54.310;10.112;2022-07-29T12:42:34;26.20;62.70
9177;DHT22;4623;54.310;10.112;2022-07-29T12:45:00;26.10;64.30
9177;DHT22;4623;54.310;10.112;2022-07-29T12:47:27;25.90;63.70
9177;DHT22;4623;54.310;10.112;2022-07-29T12:50:13;25.90;64.70
9177;DHT22;4623;54.310;10.112;2022-07-29T12:52:40;25.90;62.60
9177;DHT22;4623;54.310;10.112;2022-07-29T12:55:06;25.90;66.30
9177;DHT22;4623;54.310;10.112;2022-07-29T12:57:43;25.90;66.40
9177;DHT22;4623;54.310;10.112;2022-07-29T13:00:11;25.90;65.70
9177;DHT22;4623;54.310;10.112;2022-07-29T13:02:39;25.70;65.20
9177;DHT22;4623;54.310;10.112;2022-07-29T13:05:06;25.60;65.20
9177;DHT22;4623;54.310;10.112;2022-07-29T13:07:34;25.50;64.80
9177;DHT22;4623;54.310;10.112;2022-07-29T13:10:11;25.40;66.50
9177;DHT22;4623;54.310;10.112;2022-07-29T13:12:37;25.30;67.00
9177;DHT22;4623;54.310;10.112;2022-07-29T13:15:13;25.20;68.00
9177;DHT22;4623;54.310;10.112;2022-07-29T13:17:41;25.10;66.10
9177;DHT22;4623;54.310;10.112;2022-07-29T13:20:11;24.90;69.40
9177;DHT22;4623;54.310;10.112;2022-07-29T13:22:41;24.90;67.50
9177;DHT22;4623;54.310;10.112;2022-07-29T13:25:08;24.80;66.00
9177;DHT22;4623;54.310;10.112;2022-07-29T13:27:36;24.70;67.40
9177;DHT22;4623;54.310;10.112;2022-07-29T13:30:04;24.60;66.70
9177;DHT22;4623;54.310;10.112;2022-07-29T13:32:31;24.50;67.80
9177;DHT22;4623;54.310;10.112;2022-07-29T13:34:59;24.50;68.60
9177;DHT22;4623;54.310;10.112;2022-07-29T13:37:25;24.30;68.30
9177;DHT22;4623;54.310;10.112;2022-07-29T13:39:51;24.10;68.90
9177;DHT22;4623;54.310;10.112;2022-07-29T13:42:18;24.00;71.30
9177;DHT22;4623;54.310;10.112;2022-07-29T13:44:43;24.10;71.50
9177;DHT22;4623;54.310;10.112;2022-07-29T13:47:09;24.00;71.30
9177;DHT22;4623;54.310;10.112;2022-07-29T13:49:35;24.00;73.00
9177;DHT22;4623;54.310;10.112;2022-07-29T13:52:01;24.00;73.20
9177;DHT22;4623;54.310;10.112;2022-07-29T13:54:27;24.00;72.10
9177;DHT22;4623;54.310;10.112;2022-07-29T13:56:53;24.00;72.60
9177;DHT22;4623;54.310;10.112;2022-07-29T13:59:19;23.90;72.20
9177;DHT22;4623;54.310;10.112;2022-07-29T14:01:44;23.90;72.80
9177;DHT22;4623;54.310;10.112;2022-07-29T14:04:10;23.70;74.80
9177;DHT22;4623;54.310;10.112;2022-07-29T14:06:36;23.70;75.10
9177;DHT22;4623;54.310;10.112;2022-07-29T14:09:03;23.60;74.70
9177;DHT22;4623;54.310;10.112;2022-07-29T14:11:32;23.60;77.00
9177;DHT22;4623;54.310;10.112;2022-07-29T14:13:57;23.70;76.20
9177;DHT22;4623;54.310;10.112;2022-07-29T14:16:23;23.70;79.40
9177;DHT22;4623;54.310;10.112;2022-07-29T14:18:49;23.70;77.90
9177;DHT22;4623;54.310;10.112;2022-07-29T14:21:14;23.70;76.60
9177;DHT22;4623;54.310;10.112;2022-07-29T14:23:40;23.80;76.80
9177;DHT22;4623;54.310;10.112;2022-07-29T14:26:06;23.70;76.30
9177;DHT22;4623;54.310;10.112;2022-07-29T14:28:32;23.70;77.20
9177;DHT22;4623;54.310;10.112;2022-07-29T14:30:57;23.60;76.50
9177;DHT22;4623;54.310;10.112;2022-07-29T14:33:23;23.60;76.70
9177;DHT22;4623;54.310;10.112;2022-07-29T14:35:48;23.50;75.90
9177;DHT22;4623;54.310;10.112;2022-07-29T14:38:14;23.50;76.90
9177;DHT22;4623;54.310;10.112;2022-07-29T14:40:40;23.50;76.00
9177;DHT22;4623;54.310;10.112;2022-07-29T14:43:05;23.50;76.80
9177;DHT22;4623;54.310;10.112;2022-07-29T14:45:31;23.50;76.30
9177;DHT22;4623;54.310;10.112;2022-07-29T14:47:57;23.40;75.50
9177;DHT22;4623;54.310;10.112;2022-07-29T14:50:22;23.50;75.90
9177;DHT22;4623;54.310;10.112;2022-07-29T14:52:48;23.50;76.50
9177;DHT22;4623;54.310;10.112;2022-07-29T14:55:14;23.50;76.50
9177;DHT22;4623;54.310;10.112;2022-07-29T14:57:39;23.60;76.70
9177;DHT22;4623;54.310;10.112;2022-07-29T15:00:06;23.60;76.30
9177;DHT22;4623;54.310;10.112;2022-07-29T15:02:32;23.50;75.10
9177;DHT22;4623;54.310;10.112;2022-07-29T15:04:58;23.50;75.70
9177;DHT22;4623;54.310;10.112;2022-07-29T15:07:24;23.50;76.20
9177;DHT22;4623;54.310;10.112;2022-07-29T15:09:49;23.50;80.60
9177;DHT22;4623;54.310;10.112;2022-07-29T15:12:15;23.50;78.20
9177;DHT22;4623;54.310;10.112;2022-07-29T15:14:41;23.40;78.40
9177;DHT22;4623;54.310;10.112;2022-07-29T15:17:06;23.30;77.00
9177;DHT22;4623;54.310;10.112;2022-07-29T15:19:32;23.30;78.00
9177;DHT22;4623;54.310;10.112;2022-07-29T15:21:58;23.30;79.20
9177;DHT22;4623;54.310;10.112;2022-07-29T15:24:24;23.30;79.10
9177;DHT22;4623;54.310;10.112;2022-07-29T15:26:49;23.30;79.40
9177;DHT22;4623;54.310;10.112;2022-07-29T15:29:15;23.20;80.60
9177;DHT22;4623;54.310;10.112;2022-07-29T15:31:41;23.20;81.60
9177;DHT22;4623;54.310;10.112;2022-07-29T15:34:07;23.20;82.80
9177;DHT22;4623;54.310;10.112;2022-07-29T15:36:33;23.20;82.90
9177;DHT22;4623;54.310;10.112;2022-07-29T15:38:58;23.00;82.20
9177;DHT22;4623;54.310;10.112;2022-07-29T15:41:24;22.90;83.00
9177;DHT22;4623;54.310;10.112;2022-07-29T15:43:50;22.80;85.70
9177;DHT22;4623;54.310;10.112;2022-07-29T15:46:18;22.70;86.50
9177;DHT22;4623;54.310;10.112;2022-07-29T15:49:03;22.70;88.20
9177;DHT22;4623;54.310;10.112;2022-07-29T15:51:29;22.70;89.20
9177;DHT22;4623;54.310;10.112;2022-07-29T15:53:55;22.60;89.50
9177;DHT22;4623;54.310;10.112;2022-07-29T15:56:21;22.50;89.40
9177;DHT22;4623;54.310;10.112;2022-07-29T15:58:47;22.40;90.40
9177;DHT22;4623;54.310;10.112;2022-07-29T16:01:13;22.40;91.20
9177;DHT22;4623;54.310;10.112;2022-07-29T16:03:39;22.40;91.60
9177;DHT22;4623;54.310;10.112;2022-07-29T16:06:04;22.40;92.90
9177;DHT22;4623;54.310;10.112;2022-07-29T16:08:31;22.40;92.10
9177;DHT22;4623;54.310;10.112;2022-07-29T16:10:56;22.40;92.60
9177;DHT22;4623;54.310;10.112;2022-07-29T16:13:22;22.40;92.60
9177;DHT22;4623;54.310;10.112;2022-07-29T16:15:47;22.40;93.50
9177;DHT22;4623;54.310;10.112;2022-07-29T16:18:13;22.40;93.80
9177;DHT22;4623;54.310;10.112;2022-07-29T16:20:39;22.40;95.70
9177;DHT22;4623;54.310;10.112;2022-07-29T16:23:05;22.40;95.80
9177;DHT22;4623;54.310;10.112;2022-07-29T16:25:34;22.40;97.60
9177;DHT22;4623;54.310;10.112;2022-07-29T16:28:00;22.40;97.40
9177;DHT22;4623;54.310;10.112;2022-07-29T16:30:26;22.40;98.40
9177;DHT22;4623;54.310;10.112;2022-07-29T16:32:52;22.30;98.60
9177;DHT22;4623;54.310;10.112;2022-07-29T16:35:17;22.30;99.90
9177;DHT22;4623;54.310;10.112;2022-07-29T16:37:43;22.30;99.90
9177;DHT22;4623;54.310;10.112;2022-07-29T16:40:09;22.30;99.90